createdAt,value
2023-03-04T00:00:51.083Z,0.70
2023-03-04T00:03:22.494Z,0.65
2023-03-04T00:05:50.822Z,0.66
2023-03-04T00:08:18.822Z,0.66
2023-03-04T00:10:46.937Z,0.65
2023-03-04T00:13:15.238Z,0.65
2023-03-04T00:15:43.310Z,0.66
2023-03-04T00:18:11.388Z,0.67
2023-03-04T00:20:39.468Z,0.66
2023-03-04T00:23:08.053Z,0.66
2023-03-04T00:25:36.124Z,0.65
2023-03-04T00:28:05.040Z,0.63
2023-03-04T00:30:33.456Z,0.58
2023-03-04T00:33:01.568Z,0.56
2023-03-04T00:35:29.745Z,0.54
2023-03-04T00:37:57.984Z,0.53
2023-03-04T00:40:27.520Z,0.49
2023-03-04T00:42:55.627Z,0.51
2023-03-04T00:45:23.664Z,0.53
2023-03-04T00:47:51.693Z,0.53
2023-03-04T00:50:20.047Z,0.49
2023-03-04T00:52:48.047Z,0.48
2023-03-04T00:55:16.220Z,0.44
2023-03-04T00:57:44.507Z,0.42
2023-03-04T01:00:13.772Z,0.42
2023-03-04T01:02:42.028Z,0.42
2023-03-04T01:05:11.094Z,0.41
2023-03-04T01:07:39.170Z,0.37
2023-03-04T01:10:09.995Z,0.37
2023-03-04T01:12:38.282Z,0.38
2023-03-04T01:15:06.977Z,0.37
2023-03-04T01:17:35.140Z,0.38
2023-03-04T01:20:06.108Z,0.36
2023-03-04T01:22:34.384Z,0.35
2023-03-04T01:25:02.779Z,0.35
2023-03-04T01:27:30.968Z,0.35
2023-03-04T01:29:59.124Z,0.36
2023-03-04T01:32:27.263Z,0.34
2023-03-04T01:34:55.405Z,0.33
2023-03-04T01:37:24.689Z,0.33
2023-03-04T01:39:52.707Z,0.34
2023-03-04T01:42:23.184Z,0.35
2023-03-04T01:44:52.525Z,0.33
2023-03-04T01:47:24.275Z,0.35
2023-03-04T01:49:55.907Z,0.37
2023-03-04T01:52:26.064Z,0.39
2023-03-04T01:54:55.671Z,0.39
2023-03-04T01:57:26.619Z,0.41
2023-03-04T02:00:31.970Z,0.42
2023-03-04T02:03:13.502Z,0.40
2023-03-04T02:05:45.585Z,0.38
2023-03-04T02:08:14.535Z,0.40
2023-03-04T02:10:44.224Z,0.43
2023-03-04T02:13:13.354Z,0.44
2023-03-04T02:15:42.780Z,0.44
2023-03-04T02:18:23.983Z,0.44
2023-03-04T02:20:55.302Z,0.44
2023-03-04T02:23:30.792Z,0.44
2023-03-04T02:26:15.233Z,0.44
2023-03-04T02:28:44.588Z,0.43
2023-03-04T02:31:28.211Z,0.43
2023-03-04T02:33:59.424Z,0.44
2023-03-04T02:36:29.399Z,0.40
2023-03-04T02:39:05.594Z,0.40
2023-03-04T02:41:34.871Z,0.42
2023-03-04T02:44:03.410Z,0.41
2023-03-04T02:46:31.567Z,0.38
2023-03-04T02:48:59.711Z,0.34
2023-03-04T02:51:28.768Z,0.35
2023-03-04T02:53:56.956Z,0.35
2023-03-04T02:56:25.040Z,0.35
2023-03-04T02:58:53.211Z,0.34
2023-03-04T03:01:21.598Z,0.31
2023-03-04T03:03:49.776Z,0.29
2023-03-04T03:06:17.847Z,0.28
2023-03-04T03:08:45.928Z,0.32
2023-03-04T03:11:14.614Z,0.28
2023-03-04T03:13:42.896Z,0.26
2023-03-04T03:16:11.197Z,0.25
2023-03-04T03:18:39.359Z,0.28
2023-03-04T03:21:07.645Z,0.20
2023-03-04T03:23:35.930Z,0.20
2023-03-04T03:26:04.315Z,0.23
2023-03-04T03:28:33.154Z,0.22
2023-03-04T03:31:01.889Z,0.24
2023-03-04T03:33:30.015Z,0.22
2023-03-04T03:35:58.766Z,0.23
2023-03-04T03:38:27.654Z,0.20
2023-03-04T03:40:55.634Z,0.20
2023-03-04T03:43:23.812Z,0.23
2023-03-04T03:45:52.247Z,0.27
2023-03-04T03:48:20.371Z,0.32
2023-03-04T03:50:48.441Z,0.34
2023-03-04T03:53:16.719Z,0.35
2023-03-04T03:55:44.726Z,0.36
2023-03-04T03:58:12.867Z,0.35
2023-03-04T04:00:41.379Z,0.38
2023-03-04T04:03:14.573Z,0.40
2023-03-04T04:05:42.749Z,0.44
2023-03-04T04:08:16.305Z,0.46
2023-03-04T04:10:44.858Z,0.47
2023-03-04T04:13:13.133Z,0.48
2023-03-04T04:15:41.623Z,0.47
2023-03-04T04:18:09.695Z,0.50
2023-03-04T04:20:37.896Z,0.53
2023-03-04T04:23:06.362Z,0.52
2023-03-04T04:25:34.550Z,0.47
2023-03-04T04:28:02.615Z,0.46
2023-03-04T04:30:30.856Z,0.48
2023-03-04T04:33:01.913Z,0.47
2023-03-04T04:35:35.430Z,0.44
2023-03-04T04:38:03.625Z,0.45
2023-03-04T04:40:31.813Z,0.40
2023-03-04T04:43:00.100Z,0.39
2023-03-04T04:45:28.185Z,0.37
2023-03-04T04:47:57.516Z,0.40
2023-03-04T04:50:26.222Z,0.38
2023-03-04T04:52:54.519Z,0.37
2023-03-04T04:55:22.745Z,0.34
2023-03-04T04:57:50.916Z,0.32
2023-03-04T05:00:19.524Z,0.29
2023-03-04T05:02:47.989Z,0.25
2023-03-04T05:05:16.066Z,0.18
2023-03-04T05:07:44.088Z,0.15
2023-03-04T05:10:12.108Z,0.17
2023-03-04T05:12:40.128Z,0.19
2023-03-04T05:15:08.731Z,0.20
2023-03-04T05:17:36.727Z,0.17
2023-03-04T05:20:07.345Z,0.17
2023-03-04T05:22:35.442Z,0.17
2023-03-04T05:25:04.185Z,0.14
2023-03-04T05:27:32.252Z,0.13
2023-03-04T05:30:00.335Z,0.13
2023-03-04T05:32:28.740Z,0.12
2023-03-04T05:34:56.790Z,0.08
2023-03-04T05:37:24.972Z,0.17
2023-03-04T05:39:53.772Z,0.28
2023-03-04T05:42:22.155Z,0.32
2023-03-04T05:44:50.359Z,0.39
2023-03-04T05:47:18.768Z,0.45
2023-03-04T05:49:47.006Z,0.55
2023-03-04T05:52:15.085Z,0.64
2023-03-04T05:54:43.260Z,0.71
2023-03-04T05:57:11.322Z,0.77
2023-03-04T05:59:39.379Z,0.88
2023-03-04T06:02:07.432Z,0.98
2023-03-04T06:04:35.875Z,1.04
2023-03-04T06:07:04.078Z,1.15
2023-03-04T06:09:33.952Z,1.25
2023-03-04T06:12:02.154Z,1.34
2023-03-04T06:14:30.382Z,1.47
2023-03-04T06:16:58.500Z,1.56
2023-03-04T06:19:26.792Z,1.65
2023-03-04T06:21:55.038Z,1.74
2023-03-04T06:24:23.242Z,1.80
2023-03-04T06:26:51.287Z,1.91
2023-03-04T06:29:19.672Z,2.01
2023-03-04T06:31:47.847Z,2.14
2023-03-04T06:34:15.947Z,2.24
2023-03-04T06:36:44.226Z,2.35
2023-03-04T06:39:12.299Z,2.49
2023-03-04T06:41:40.828Z,2.64
2023-03-04T06:44:09.283Z,2.76
2023-03-04T06:46:37.588Z,2.86
2023-03-04T06:49:05.683Z,2.95
2023-03-04T06:51:33.695Z,3.01
2023-03-04T06:54:01.994Z,3.09
2023-03-04T06:56:30.105Z,3.13
2023-03-04T06:58:58.739Z,3.11
2023-03-04T07:01:29.270Z,3.18
2023-03-04T07:03:58.295Z,3.32
2023-03-04T07:06:28.841Z,3.43
2023-03-04T07:08:57.732Z,3.57
2023-03-04T07:11:26.156Z,3.57
2023-03-04T07:13:54.430Z,3.63
2023-03-04T07:16:23.845Z,3.74
2023-03-04T07:18:51.987Z,3.80
2023-03-04T07:21:20.357Z,3.92
2023-03-04T07:23:48.655Z,3.95
2023-03-04T07:26:17.675Z,3.96
2023-03-04T07:28:45.812Z,4.03
2023-03-04T07:31:30.366Z,4.17
2023-03-04T07:34:07.150Z,4.27
2023-03-04T07:36:36.899Z,4.37
2023-03-04T07:39:06.350Z,4.37
2023-03-04T07:41:37.859Z,4.27
2023-03-04T07:44:08.200Z,4.44
2023-03-04T07:46:36.956Z,4.52
2023-03-04T07:49:05.167Z,4.55
2023-03-04T07:51:35.113Z,4.67
2023-03-04T07:54:03.533Z,4.78
2023-03-04T07:56:34.244Z,4.84
2023-03-04T07:59:03.352Z,4.92
2023-03-04T08:01:34.716Z,5.09
2023-03-04T08:04:06.914Z,5.23
2023-03-04T08:06:35.614Z,5.34
2023-03-04T08:09:06.791Z,5.23
2023-03-04T08:11:37.762Z,5.24
2023-03-04T08:14:06.917Z,5.43
2023-03-04T08:16:35.281Z,5.54
2023-03-04T08:19:04.679Z,5.78
2023-03-04T08:21:34.087Z,6.00
2023-03-04T08:24:08.471Z,6.22
2023-03-04T08:26:43.908Z,6.29
2023-03-04T08:29:15.169Z,6.48
2023-03-04T08:31:48.696Z,6.62
2023-03-04T08:34:19.751Z,6.80
2023-03-04T08:36:48.051Z,6.97
2023-03-04T08:39:18.134Z,7.15
2023-03-04T08:41:48.618Z,7.28
2023-03-04T08:44:17.327Z,7.40
2023-03-04T08:46:45.424Z,7.51
2023-03-04T08:49:14.795Z,7.61
2023-03-04T08:51:44.774Z,7.72
2023-03-04T08:54:12.873Z,7.71
2023-03-04T08:56:41.939Z,7.76
2023-03-04T08:59:10.322Z,7.74
2023-03-04T09:01:38.625Z,7.87
2023-03-04T09:04:07.286Z,7.75
2023-03-04T09:06:35.318Z,7.69
2023-03-04T09:09:04.648Z,7.75
2023-03-04T09:11:32.959Z,7.94
2023-03-04T09:14:01.008Z,8.03
2023-03-04T09:16:29.179Z,8.25
2023-03-04T09:18:57.414Z,8.39
2023-03-04T09:21:25.633Z,8.52
2023-03-04T09:23:54.011Z,8.76
2023-03-04T09:26:28.258Z,8.88
2023-03-04T09:28:58.737Z,8.96
2023-03-04T09:31:28.443Z,9.05
2023-03-04T09:33:58.267Z,9.00
2023-03-04T09:36:26.786Z,8.79
2023-03-04T09:38:55.428Z,8.81
2023-03-04T09:41:50.063Z,8.66
2023-03-04T09:44:28.885Z,8.79
2023-03-04T09:47:01.368Z,8.87
2023-03-04T09:49:30.938Z,8.82
2023-03-04T09:52:23.517Z,8.78
2023-03-04T09:55:18.110Z,8.70
2023-03-04T09:57:58.680Z,8.68
2023-03-04T10:00:45.092Z,8.65
2023-03-04T10:03:24.642Z,8.76
2023-03-04T10:06:09.883Z,8.92
2023-03-04T10:09:00.608Z,8.96
2023-03-04T10:11:41.797Z,9.07
2023-03-04T10:14:22.185Z,9.11
2023-03-04T10:17:37.192Z,8.96
2023-03-04T10:20:11.372Z,9.01
2023-03-04T10:22:45.416Z,8.94
2023-03-04T10:25:23.312Z,9.06
2023-03-04T10:27:59.772Z,9.18
2023-03-04T10:30:30.737Z,9.21
2023-03-04T10:32:58.860Z,9.36
2023-03-04T10:35:36.739Z,9.37
2023-03-04T10:38:14.075Z,9.42
2023-03-04T10:40:45.134Z,9.28
2023-03-04T10:43:22.007Z,9.48
2023-03-04T10:45:57.276Z,9.45
2023-03-04T10:48:29.170Z,9.25
2023-03-04T10:51:12.393Z,9.30
2023-03-04T10:53:43.655Z,9.27
2023-03-04T10:56:30.833Z,9.11
2023-03-04T10:59:30.219Z,9.36
2023-03-04T11:02:14.630Z,9.38
2023-03-04T11:04:43.127Z,9.39
2023-03-04T11:07:11.723Z,9.24
2023-03-04T11:09:40.380Z,9.11
2023-03-04T11:12:13.070Z,9.35
2023-03-04T11:14:46.892Z,9.54
2023-03-04T11:17:27.527Z,9.57
2023-03-04T11:20:40.798Z,9.71
2023-03-04T11:23:19.614Z,9.74
2023-03-04T11:25:49.945Z,9.81
2023-03-04T11:28:24.583Z,9.74
2023-03-04T11:31:01.364Z,9.79
2023-03-04T11:33:35.552Z,9.75
2023-03-04T11:36:22.707Z,9.67
2023-03-04T11:38:52.023Z,9.60
2023-03-04T11:41:36.893Z,9.68
2023-03-04T11:44:09.596Z,9.56
2023-03-04T11:46:46.853Z,9.58
2023-03-04T11:49:33.832Z,9.53
2023-03-04T11:52:14.042Z,9.50
2023-03-04T11:55:07.655Z,9.47
2023-03-04T11:58:30.629Z,9.53
2023-03-04T12:01:27.227Z,9.46
2023-03-04T12:04:06.922Z,9.46
2023-03-04T12:06:40.740Z,9.44
2023-03-04T12:09:46.665Z,9.38
2023-03-04T12:12:20.776Z,9.38
2023-03-04T12:15:01.151Z,9.28
2023-03-04T12:17:59.528Z,9.22
2023-03-04T12:20:51.900Z,9.26
2023-03-04T12:24:02.366Z,9.29
2023-03-04T12:26:45.154Z,9.29
2023-03-04T12:29:45.925Z,9.28
2023-03-04T12:32:44.223Z,9.39
2023-03-04T12:35:34.682Z,9.39
2023-03-04T12:38:27.878Z,9.30
2023-03-04T12:41:19.485Z,9.26
2023-03-04T12:44:01.302Z,9.25
2023-03-04T12:46:45.104Z,9.23
2023-03-04T12:49:28.785Z,9.33
2023-03-04T12:52:22.364Z,9.20
2023-03-04T12:54:58.191Z,9.29
2023-03-04T12:57:31.750Z,9.21
2023-03-04T13:00:05.590Z,9.36
2023-03-04T13:02:40.137Z,9.46
2023-03-04T13:05:25.443Z,9.44
2023-03-04T13:08:13.796Z,9.51
2023-03-04T13:10:41.950Z,9.60
2023-03-04T13:13:37.159Z,9.61
2023-03-04T13:16:29.457Z,9.20
2023-03-04T13:18:58.280Z,9.09
2023-03-04T13:21:28.260Z,9.09
2023-03-04T13:23:56.827Z,9.16
2023-03-04T13:26:34.701Z,9.29
2023-03-04T13:29:17.758Z,9.49
2023-03-04T13:31:58.122Z,9.61
2023-03-04T13:35:01.813Z,9.60
2023-03-04T13:37:30.117Z,9.50
2023-03-04T13:40:23.528Z,9.31
2023-03-04T13:42:51.608Z,9.32
2023-03-04T13:45:36.893Z,9.32
2023-03-04T13:48:23.356Z,9.12
2023-03-04T13:50:52.141Z,9.17
2023-03-04T13:53:39.982Z,9.34
2023-03-04T13:56:11.133Z,9.21
2023-03-04T13:58:40.023Z,9.28
2023-03-04T14:01:44.284Z,9.34
2023-03-04T14:04:37.311Z,9.35
2023-03-04T14:07:19.109Z,9.32
2023-03-04T14:09:58.048Z,9.37
2023-03-04T14:12:30.995Z,9.40
2023-03-04T14:15:27.809Z,9.46
2023-03-04T14:17:59.148Z,9.42
2023-03-04T14:20:39.019Z,9.43
2023-03-04T14:23:35.567Z,9.40
2023-03-04T14:26:08.533Z,9.37
2023-03-04T14:28:49.028Z,9.36
2023-03-04T14:31:23.022Z,9.35
2023-03-04T14:34:02.123Z,9.37
2023-03-04T14:36:33.909Z,9.34
2023-03-04T14:39:06.084Z,9.30
2023-03-04T14:41:38.020Z,9.24
2023-03-04T14:44:29.285Z,9.17
2023-03-04T14:47:10.354Z,9.12
2023-03-04T14:49:42.225Z,9.08
2023-03-04T14:52:51.896Z,9.07
2023-03-04T14:55:28.222Z,9.09
2023-03-04T14:58:23.471Z,9.01
2023-03-04T15:01:06.100Z,9.00
2023-03-04T15:03:35.330Z,8.81
2023-03-04T15:06:15.136Z,8.63
2023-03-04T15:08:43.813Z,8.52
2023-03-04T15:11:21.996Z,8.36
2023-03-04T15:13:55.970Z,8.07
2023-03-04T15:16:26.708Z,8.06
2023-03-04T15:19:23.390Z,7.88
2023-03-04T15:21:52.019Z,7.78
2023-03-04T15:24:20.676Z,7.59
2023-03-04T15:26:50.541Z,7.60
2023-03-04T15:29:20.655Z,7.46
2023-03-04T15:31:49.157Z,7.40
2023-03-04T15:34:19.441Z,7.24
2023-03-04T15:36:50.352Z,7.14
2023-03-04T15:39:19.926Z,7.00
2023-03-04T15:41:48.563Z,6.88
2023-03-04T15:44:16.903Z,6.82
2023-03-04T15:46:45.024Z,6.79
2023-03-04T15:49:13.199Z,6.68
2023-03-04T15:51:41.327Z,6.49
2023-03-04T15:54:14.062Z,6.39
2023-03-04T15:56:43.046Z,6.27
2023-03-04T15:59:12.222Z,6.14
2023-03-04T16:01:40.659Z,6.04
2023-03-04T16:04:16.951Z,5.90
2023-03-04T16:06:47.165Z,5.75
2023-03-04T16:09:17.869Z,5.63
2023-03-04T16:11:47.838Z,5.52
2023-03-04T16:14:17.089Z,5.50
2023-03-04T16:16:47.141Z,5.30
2023-03-04T16:19:15.579Z,5.12
2023-03-04T16:21:43.829Z,5.02
2023-03-04T16:24:17.730Z,4.91
2023-03-04T16:26:46.254Z,4.77
2023-03-04T16:29:15.792Z,4.71
2023-03-04T16:31:44.154Z,4.70
2023-03-04T16:34:12.450Z,4.62
2023-03-04T16:36:41.180Z,4.63
2023-03-04T16:39:22.779Z,4.60
2023-03-04T16:41:51.823Z,4.57
2023-03-04T16:44:19.902Z,4.53
2023-03-04T16:46:48.156Z,4.48
2023-03-04T16:49:17.097Z,4.48
2023-03-04T16:51:50.319Z,4.42
2023-03-04T16:54:30.548Z,4.38
2023-03-04T16:56:59.940Z,4.32
2023-03-04T16:59:29.365Z,4.29
2023-03-04T17:01:57.665Z,4.23
2023-03-04T17:04:25.937Z,4.15
2023-03-04T17:06:54.104Z,4.06
2023-03-04T17:09:22.239Z,3.99
2023-03-04T17:11:50.559Z,3.94
2023-03-04T17:14:18.725Z,3.87
2023-03-04T17:16:46.913Z,3.85
2023-03-04T17:19:15.202Z,3.80
2023-03-04T17:21:43.262Z,3.74
2023-03-04T17:24:12.070Z,3.71
2023-03-04T17:26:40.763Z,3.70
2023-03-04T17:29:09.346Z,3.60
2023-03-04T17:31:37.437Z,3.59
2023-03-04T17:34:05.804Z,3.55
2023-03-04T17:36:34.047Z,3.51
2023-03-04T17:39:03.987Z,3.45
2023-03-04T17:41:33.467Z,3.40
2023-03-04T17:44:03.948Z,3.41
2023-03-04T17:46:32.201Z,3.40
2023-03-04T17:49:00.377Z,3.32
2023-03-04T17:51:37.523Z,3.25
2023-03-04T17:54:08.597Z,3.16
2023-03-04T17:56:39.540Z,3.07
2023-03-04T17:59:11.486Z,3.00
2023-03-04T18:01:40.033Z,2.94
2023-03-04T18:04:08.528Z,2.88
2023-03-04T18:06:36.782Z,2.79
2023-03-04T18:09:05.704Z,2.71
2023-03-04T18:11:37.101Z,2.67
2023-03-04T18:14:05.551Z,2.64
2023-03-04T18:16:33.765Z,2.58
2023-03-04T18:19:02.898Z,2.52
2023-03-04T18:21:32.165Z,2.47
2023-03-04T18:24:00.328Z,2.47
2023-03-04T18:26:28.905Z,2.52
2023-03-04T18:28:57.689Z,2.49
2023-03-04T18:31:31.466Z,2.42
2023-03-04T18:34:02.133Z,2.37
2023-03-04T18:36:30.353Z,2.32
2023-03-04T18:39:02.503Z,2.28
2023-03-04T18:41:31.916Z,2.27
2023-03-04T18:44:00.107Z,2.27
2023-03-04T18:46:34.726Z,2.26
2023-03-04T18:49:05.970Z,2.27
2023-03-04T18:51:34.312Z,2.25
2023-03-04T18:54:02.452Z,2.27
2023-03-04T18:56:39.012Z,2.33
2023-03-04T18:59:42.568Z,2.42
2023-03-04T19:02:42.826Z,2.55
2023-03-04T19:05:15.920Z,2.66
2023-03-04T19:07:44.019Z,2.74
2023-03-04T19:10:12.819Z,2.73
2023-03-04T19:12:40.944Z,2.63
2023-03-04T19:15:10.605Z,2.46
2023-03-04T19:17:40.336Z,2.34
2023-03-04T19:20:09.694Z,2.25
2023-03-04T19:22:37.836Z,2.26
2023-03-04T19:25:06.580Z,2.20
2023-03-04T19:27:35.084Z,2.15
2023-03-04T19:30:05.228Z,2.11
2023-03-04T19:32:33.868Z,2.07
2023-03-04T19:35:01.972Z,2.02
2023-03-04T19:37:29.933Z,1.99
2023-03-04T19:39:58.013Z,1.89
2023-03-04T19:42:26.169Z,1.78
2023-03-04T19:44:54.296Z,1.80
2023-03-04T19:47:22.573Z,1.82
2023-03-04T19:49:50.693Z,1.83
2023-03-04T19:52:19.434Z,1.84
2023-03-04T19:54:47.369Z,1.90
2023-03-04T19:57:15.435Z,2.05
2023-03-04T19:59:43.537Z,2.14
2023-03-04T20:02:11.716Z,2.20
2023-03-04T20:04:39.848Z,2.50
2023-03-04T20:07:08.816Z,2.63
2023-03-04T20:09:39.983Z,2.66
2023-03-04T20:12:08.949Z,2.64
2023-03-04T20:14:37.527Z,2.76
2023-03-04T20:17:08.125Z,2.94
2023-03-04T20:19:36.321Z,2.97
2023-03-04T20:22:05.850Z,3.01
2023-03-04T20:24:34.345Z,2.98
2023-03-04T20:27:02.623Z,3.07
2023-03-04T20:29:30.803Z,3.23
2023-03-04T20:31:59.501Z,3.25
2023-03-04T20:34:27.519Z,3.26
2023-03-04T20:36:55.672Z,3.20
2023-03-04T20:39:29.555Z,3.13
2023-03-04T20:41:59.075Z,3.05
2023-03-04T20:44:27.746Z,2.97
2023-03-04T20:46:56.371Z,3.02
2023-03-04T20:49:27.523Z,3.03
2023-03-04T20:52:06.390Z,2.97
2023-03-04T20:54:36.582Z,2.88
2023-03-04T20:57:08.010Z,2.83
2023-03-04T20:59:37.986Z,2.73
2023-03-04T21:02:08.888Z,2.67
2023-03-04T21:04:37.077Z,2.65
2023-03-04T21:07:05.154Z,2.62
2023-03-04T21:09:33.361Z,2.55
2023-03-04T21:12:02.267Z,2.46
2023-03-04T21:14:31.835Z,2.37
2023-03-04T21:17:02.875Z,2.30
2023-03-04T21:19:42.273Z,2.23
2023-03-04T21:22:15.686Z,2.18
2023-03-04T21:24:45.243Z,2.15
2023-03-04T21:27:15.155Z,2.19
2023-03-04T21:29:43.353Z,2.19
2023-03-04T21:32:24.113Z,2.13
2023-03-04T21:34:54.819Z,2.10
2023-03-04T21:37:25.153Z,2.02
2023-03-04T21:39:54.378Z,1.98
2023-03-04T21:42:22.645Z,1.90
2023-03-04T21:44:51.926Z,1.85
2023-03-04T21:47:21.530Z,1.78
2023-03-04T21:49:49.892Z,1.76
2023-03-04T21:52:19.760Z,1.73
2023-03-04T21:54:48.568Z,1.72
2023-03-04T21:57:17.098Z,1.70
2023-03-04T21:59:45.471Z,1.68
2023-03-04T22:02:21.977Z,1.64
2023-03-04T22:04:50.351Z,1.60
2023-03-04T22:07:18.472Z,1.58
2023-03-04T22:09:46.720Z,1.56
2023-03-04T22:12:15.829Z,1.55
2023-03-04T22:14:44.488Z,1.55
2023-03-04T22:17:12.902Z,1.51
2023-03-04T22:19:41.085Z,1.46
2023-03-04T22:22:09.215Z,1.39
2023-03-04T22:24:37.248Z,1.34
2023-03-04T22:27:05.203Z,1.29
2023-03-04T22:29:33.304Z,1.23
2023-03-04T22:32:01.424Z,1.20
2023-03-04T22:34:29.665Z,1.18
2023-03-04T22:36:57.737Z,1.13
2023-03-04T22:39:25.792Z,1.07
2023-03-04T22:41:54.075Z,1.01
2023-03-04T22:44:22.295Z,0.98
2023-03-04T22:46:50.378Z,0.96
2023-03-04T22:49:18.414Z,1.04
2023-03-04T22:51:46.842Z,1.08
2023-03-04T22:54:17.639Z,1.10
2023-03-04T22:56:46.325Z,1.15
2023-03-04T22:59:14.337Z,1.16
2023-03-04T23:01:42.531Z,1.19
2023-03-04T23:04:10.965Z,1.22
2023-03-04T23:06:39.255Z,1.28
2023-03-04T23:09:07.448Z,1.34
2023-03-04T23:11:36.589Z,1.36
2023-03-04T23:14:07.390Z,1.39
2023-03-04T23:16:39.459Z,1.39
2023-03-04T23:19:08.321Z,1.41
2023-03-04T23:21:37.586Z,1.45
2023-03-04T23:24:07.610Z,1.45
2023-03-04T23:26:41.014Z,1.47
2023-03-04T23:29:13.738Z,1.47
2023-03-04T23:31:42.767Z,1.50
2023-03-04T23:34:11.470Z,1.50
2023-03-04T23:36:39.740Z,1.58
2023-03-04T23:39:08.225Z,1.66
2023-03-04T23:41:36.620Z,1.74
2023-03-04T23:44:04.899Z,1.77
2023-03-04T23:46:33.664Z,1.78
2023-03-04T23:49:01.649Z,1.77
2023-03-04T23:51:31.517Z,1.73
2023-03-04T23:53:59.995Z,1.70
2023-03-04T23:56:30.860Z,1.64
2023-03-04T23:59:00.138Z,1.59
